createdAt,value
2023-03-03T00:00:26.681Z,1005.03
2023-03-03T00:01:26.673Z,1005.02
2023-03-03T00:02:26.685Z,1005.03
2023-03-03T00:03:26.708Z,1005.04
2023-03-03T00:04:26.625Z,1005.04
2023-03-03T00:05:26.596Z,1005.08
2023-03-03T00:06:26.578Z,1005.04
2023-03-03T00:07:26.629Z,1005.07
2023-03-03T00:08:26.563Z,1005.04
2023-03-03T00:09:26.572Z,1005.02
2023-03-03T00:10:26.600Z,1005.02
2023-03-03T00:11:26.510Z,1005.02
2023-03-03T00:12:26.499Z,1005.03
2023-03-03T00:13:26.525Z,1005.03
2023-03-03T00:14:26.491Z,1005.02
2023-03-03T00:15:26.501Z,1005.01
2023-03-03T00:16:26.537Z,1005.03
2023-03-03T00:17:26.452Z,1005.06
2023-03-03T00:18:26.441Z,1005.04
2023-03-03T00:19:26.452Z,1004.99
2023-03-03T00:20:26.451Z,1004.98
2023-03-03T00:21:26.409Z,1004.98
2023-03-03T00:22:26.402Z,1004.99
2023-03-03T00:23:26.397Z,1004.95
2023-03-03T00:24:26.406Z,1004.92
2023-03-03T00:25:26.381Z,1004.94
2023-03-03T00:26:26.352Z,1004.99
2023-03-03T00:27:26.340Z,1004.96
2023-03-03T00:28:26.322Z,1005.01
2023-03-03T00:29:26.332Z,1004.98
2023-03-03T00:30:26.338Z,1005.00
2023-03-03T00:31:26.345Z,1005.01
2023-03-03T00:32:26.327Z,1005.04
2023-03-03T00:33:26.284Z,1005.01
2023-03-03T00:34:26.265Z,1005.00
2023-03-03T00:35:26.326Z,1005.03
2023-03-03T00:36:26.232Z,1005.03
2023-03-03T00:37:26.240Z,1005.03
2023-03-03T00:38:26.257Z,1005.01
2023-03-03T00:39:26.214Z,1005.05
2023-03-03T00:40:26.212Z,1005.02
2023-03-03T00:41:26.174Z,1005.04
2023-03-03T00:42:26.167Z,1005.04
2023-03-03T00:43:26.188Z,1005.07
2023-03-03T00:44:26.132Z,1005.08
2023-03-03T00:45:26.174Z,1005.09
2023-03-03T00:46:26.141Z,1005.07
2023-03-03T00:47:26.105Z,1005.04
2023-03-03T00:48:26.089Z,1005.14
2023-03-03T00:49:26.113Z,1005.07
2023-03-03T00:50:26.133Z,1005.07
2023-03-03T00:51:26.088Z,1005.10
2023-03-03T00:52:26.068Z,1005.11
2023-03-03T00:53:26.046Z,1005.09
2023-03-03T00:54:26.048Z,1005.12
2023-03-03T00:55:26.015Z,1005.07
2023-03-03T00:56:26.054Z,1005.09
2023-03-03T00:57:26.011Z,1005.10
2023-03-03T00:58:26.055Z,1005.15
2023-03-03T00:59:26.001Z,1005.17
2023-03-03T01:00:25.981Z,1005.17
2023-03-03T01:01:25.997Z,1005.16
2023-03-03T01:02:25.987Z,1005.16
2023-03-03T01:03:26.086Z,1005.11
2023-03-03T01:04:25.924Z,1005.15
2023-03-03T01:05:25.909Z,1005.11
2023-03-03T01:06:25.936Z,1005.08
2023-03-03T01:07:25.887Z,1005.05
2023-03-03T01:08:25.882Z,1005.09
2023-03-03T01:09:25.880Z,1005.06
2023-03-03T01:10:25.843Z,1005.03
2023-03-03T01:11:25.887Z,1005.00
2023-03-03T01:12:25.871Z,1004.96
2023-03-03T01:13:25.844Z,1005.02
2023-03-03T01:14:25.829Z,1004.99
2023-03-03T01:15:25.848Z,1005.05
2023-03-03T01:16:25.950Z,1005.02
2023-03-03T01:17:25.818Z,1005.01
2023-03-03T01:18:25.787Z,1005.04
2023-03-03T01:19:25.766Z,1005.04
2023-03-03T01:20:25.775Z,1005.02
2023-03-03T01:21:25.741Z,1005.05
2023-03-03T01:22:25.714Z,1005.05
2023-03-03T01:23:25.734Z,1005.04
2023-03-03T01:24:25.683Z,1005.08
2023-03-03T01:25:25.710Z,1005.12
2023-03-03T01:26:25.672Z,1005.07
2023-03-03T01:27:25.654Z,1005.06
2023-03-03T01:28:25.698Z,1005.07
2023-03-03T01:29:25.631Z,1005.08
2023-03-03T01:30:25.656Z,1005.11
2023-03-03T01:31:25.613Z,1005.11
2023-03-03T01:32:25.615Z,1005.13
2023-03-03T01:33:25.599Z,1005.17
2023-03-03T01:34:25.603Z,1005.13
2023-03-03T01:35:25.638Z,1005.21
2023-03-03T01:36:25.545Z,1005.13
2023-03-03T01:37:25.546Z,1005.17
2023-03-03T01:38:25.591Z,1005.20
2023-03-03T01:39:25.520Z,1005.14
2023-03-03T01:40:25.510Z,1005.19
2023-03-03T01:41:25.567Z,1005.21
2023-03-03T01:42:25.498Z,1005.19
2023-03-03T01:43:25.473Z,1005.17
2023-03-03T01:44:25.493Z,1005.14
2023-03-03T01:45:25.522Z,1005.19
2023-03-03T01:46:25.501Z,1005.25
2023-03-03T01:47:25.476Z,1005.26
2023-03-03T01:48:25.428Z,1005.22
2023-03-03T01:49:25.419Z,1005.22
2023-03-03T01:50:25.399Z,1005.26
2023-03-03T01:51:25.421Z,1005.27
2023-03-03T01:52:25.384Z,1005.22
2023-03-03T01:53:25.347Z,1005.24
2023-03-03T01:54:25.370Z,1005.25
2023-03-03T01:55:25.323Z,1005.27
2023-03-03T01:56:25.339Z,1005.25
2023-03-03T01:57:25.370Z,1005.30
2023-03-03T01:58:25.364Z,1005.25
2023-03-03T01:59:25.326Z,1005.23
2023-03-03T02:00:25.291Z,1005.25
2023-03-03T02:01:25.354Z,1005.32
2023-03-03T02:02:25.273Z,1005.27
2023-03-03T02:03:25.280Z,1005.26
2023-03-03T02:04:25.258Z,1005.25
2023-03-03T02:05:25.224Z,1005.21
2023-03-03T02:06:25.214Z,1005.25
2023-03-03T02:07:25.242Z,1005.18
2023-03-03T02:08:25.228Z,1005.22
2023-03-03T02:09:25.180Z,1005.17
2023-03-03T02:10:25.193Z,1005.15
2023-03-03T02:11:25.171Z,1005.13
2023-03-03T02:12:25.262Z,1005.14
2023-03-03T02:13:25.144Z,1005.07
2023-03-03T02:14:25.116Z,1005.08
2023-03-03T02:15:25.102Z,1005.07
2023-03-03T02:16:25.145Z,1005.07
2023-03-03T02:17:25.105Z,1005.08
2023-03-03T02:18:25.104Z,1005.06
2023-03-03T02:19:25.098Z,1005.07
2023-03-03T02:20:25.062Z,1005.02
2023-03-03T02:21:25.058Z,1004.99
2023-03-03T02:22:25.043Z,1004.99
2023-03-03T02:23:25.037Z,1005.02
2023-03-03T02:24:25.032Z,1005.04
2023-03-03T02:25:25.007Z,1005.09
2023-03-03T02:26:24.995Z,1005.06
2023-03-03T02:27:24.988Z,1005.02
2023-03-03T02:28:24.970Z,1005.03
2023-03-03T02:29:25.059Z,1005.08
2023-03-03T02:30:24.970Z,1005.06
2023-03-03T02:31:24.938Z,1004.99
2023-03-03T02:32:24.989Z,1005.04
2023-03-03T02:33:24.911Z,1005.03
2023-03-03T02:34:24.925Z,1004.95
2023-03-03T02:35:24.948Z,1005.02
2023-03-03T02:36:24.892Z,1004.98
2023-03-03T02:37:24.850Z,1004.95
2023-03-03T02:38:24.844Z,1004.97
2023-03-03T02:39:24.838Z,1004.97
2023-03-03T02:40:24.851Z,1005.01
2023-03-03T02:41:24.873Z,1004.98
2023-03-03T02:42:24.826Z,1004.99
2023-03-03T02:43:24.805Z,1005.00
2023-03-03T02:44:24.798Z,1004.96
2023-03-03T02:45:24.876Z,1004.96
2023-03-03T02:46:24.775Z,1004.92
2023-03-03T02:47:24.754Z,1004.91
2023-03-03T02:48:24.760Z,1004.92
2023-03-03T02:49:24.710Z,1004.90
2023-03-03T02:50:24.711Z,1004.91
2023-03-03T02:51:24.706Z,1004.98
2023-03-03T02:52:24.707Z,1005.00
2023-03-03T02:53:24.723Z,1004.99
2023-03-03T02:54:24.713Z,1005.01
2023-03-03T02:55:24.697Z,1005.08
2023-03-03T02:56:24.693Z,1005.06
2023-03-03T02:57:24.653Z,1005.08
2023-03-03T02:58:24.605Z,1005.13
2023-03-03T02:59:24.619Z,1005.16
2023-03-03T03:00:24.636Z,1005.19
2023-03-03T03:01:24.688Z,1005.22
2023-03-03T03:02:24.588Z,1005.21
2023-03-03T03:03:24.563Z,1005.24
2023-03-03T03:04:24.612Z,1005.22
2023-03-03T03:05:24.551Z,1005.20
2023-03-03T03:06:24.534Z,1005.19
2023-03-03T03:07:24.534Z,1005.16
2023-03-03T03:08:24.493Z,1005.16
2023-03-03T03:09:24.481Z,1005.20
2023-03-03T03:10:24.473Z,1005.20
2023-03-03T03:11:24.483Z,1005.20
2023-03-03T03:12:24.463Z,1005.22
2023-03-03T03:13:24.431Z,1005.22
2023-03-03T03:14:24.439Z,1005.16
2023-03-03T03:15:24.412Z,1005.14
2023-03-03T03:16:24.469Z,1005.19
2023-03-03T03:17:24.412Z,1005.12
2023-03-03T03:18:24.409Z,1005.15
2023-03-03T03:19:24.355Z,1005.15
2023-03-03T03:20:24.385Z,1005.18
2023-03-03T03:21:24.342Z,1005.23
2023-03-03T03:22:24.324Z,1005.20
2023-03-03T03:23:24.327Z,1005.21
2023-03-03T03:24:24.348Z,1005.18
2023-03-03T03:25:24.289Z,1005.20
2023-03-03T03:26:24.302Z,1005.20
2023-03-03T03:27:24.305Z,1005.26
2023-03-03T03:28:24.330Z,1005.25
2023-03-03T03:29:24.236Z,1005.27
2023-03-03T03:30:24.273Z,1005.26
2023-03-03T03:31:24.234Z,1005.26
2023-03-03T03:32:24.281Z,1005.31
2023-03-03T03:33:24.207Z,1005.33
2023-03-03T03:34:24.174Z,1005.32
2023-03-03T03:35:24.227Z,1005.30
2023-03-03T03:36:24.164Z,1005.33
2023-03-03T03:37:24.248Z,1005.34
2023-03-03T03:38:24.137Z,1005.25
2023-03-03T03:39:24.152Z,1005.26
2023-03-03T03:40:24.147Z,1005.27
2023-03-03T03:41:24.131Z,1005.25
2023-03-03T03:42:24.135Z,1005.25
2023-03-03T03:43:24.075Z,1005.27
2023-03-03T03:44:24.095Z,1005.29
2023-03-03T03:45:24.074Z,1005.28
2023-03-03T03:46:24.156Z,1005.32
2023-03-03T03:47:24.036Z,1005.32
2023-03-03T03:48:24.019Z,1005.25
2023-03-03T03:49:24.053Z,1005.22
2023-03-03T03:50:24.030Z,1005.23
2023-03-03T03:51:24.040Z,1005.17
2023-03-03T03:52:23.998Z,1005.14
2023-03-03T03:53:23.964Z,1005.11
2023-03-03T03:54:23.971Z,1005.11
2023-03-03T03:55:23.939Z,1005.09
2023-03-03T03:56:23.962Z,1005.11
2023-03-03T03:57:26.570Z,1005.06
2023-03-03T03:58:23.923Z,1005.04
2023-03-03T03:59:23.907Z,1005.03
2023-03-03T04:00:23.881Z,1005.04
2023-03-03T04:01:23.915Z,1005.02
2023-03-03T04:02:23.964Z,1005.02
2023-03-03T04:03:24.039Z,1005.05
2023-03-03T04:04:23.857Z,1005.04
2023-03-03T04:05:23.885Z,1005.06
2023-03-03T04:06:23.859Z,1005.07
2023-03-03T04:07:23.804Z,1005.15
2023-03-03T04:08:23.796Z,1005.17
2023-03-03T04:09:23.789Z,1005.13
2023-03-03T04:10:23.807Z,1005.18
2023-03-03T04:11:23.803Z,1005.16
2023-03-03T04:12:23.792Z,1005.17
2023-03-03T04:13:23.736Z,1005.16
2023-03-03T04:14:23.761Z,1005.15
2023-03-03T04:15:23.736Z,1005.16
2023-03-03T04:16:23.747Z,1005.20
2023-03-03T04:17:23.742Z,1005.19
2023-03-03T04:18:23.694Z,1005.26
2023-03-03T04:19:23.671Z,1005.24
2023-03-03T04:20:23.664Z,1005.20
2023-03-03T04:21:23.662Z,1005.24
2023-03-03T04:22:23.709Z,1005.30
2023-03-03T04:23:23.624Z,1005.34
2023-03-03T04:24:23.683Z,1005.23
2023-03-03T04:25:23.606Z,1005.26
2023-03-03T04:26:23.592Z,1005.31
2023-03-03T04:27:23.614Z,1005.33
2023-03-03T04:28:23.615Z,1005.32
2023-03-03T04:29:23.579Z,1005.28
2023-03-03T04:30:23.560Z,1005.31
2023-03-03T04:31:23.635Z,1005.28
2023-03-03T04:32:23.557Z,1005.32
2023-03-03T04:33:23.532Z,1005.35
2023-03-03T04:34:23.527Z,1005.40
2023-03-03T04:35:23.541Z,1005.33
2023-03-03T04:36:23.477Z,1005.32
2023-03-03T04:37:23.487Z,1005.32
2023-03-03T04:38:23.515Z,1005.30
2023-03-03T04:39:23.470Z,1005.35
2023-03-03T04:40:23.428Z,1005.35
2023-03-03T04:41:23.427Z,1005.37
2023-03-03T04:42:23.435Z,1005.41
2023-03-03T04:43:23.432Z,1005.40
2023-03-03T04:44:23.432Z,1005.38
2023-03-03T04:45:23.376Z,1005.44
2023-03-03T04:46:23.501Z,1005.45
2023-03-03T04:47:23.349Z,1005.44
2023-03-03T04:48:23.342Z,1005.42
2023-03-03T04:49:23.345Z,1005.41
2023-03-03T04:50:23.357Z,1005.41
2023-03-03T04:51:23.319Z,1005.47
2023-03-03T04:52:23.311Z,1005.46
2023-03-03T04:53:23.319Z,1005.46
2023-03-03T04:54:23.283Z,1005.47
2023-03-03T04:55:23.277Z,1005.38
2023-03-03T04:56:23.265Z,1005.41
2023-03-03T04:57:23.275Z,1005.48
2023-03-03T04:58:23.255Z,1005.38
2023-03-03T04:59:23.259Z,1005.49
2023-03-03T05:00:23.238Z,1005.47
2023-03-03T05:01:23.273Z,1005.44
2023-03-03T05:02:23.164Z,1005.44
2023-03-03T05:03:23.177Z,1005.46
2023-03-03T05:04:23.169Z,1005.46
2023-03-03T05:05:23.183Z,1005.47
2023-03-03T05:06:23.156Z,1005.49
2023-03-03T05:07:23.149Z,1005.47
2023-03-03T05:08:23.122Z,1005.55
2023-03-03T05:09:23.092Z,1005.57
2023-03-03T05:10:23.111Z,1005.51
2023-03-03T05:11:23.061Z,1005.53
2023-03-03T05:12:23.062Z,1005.53
2023-03-03T05:13:23.068Z,1005.55
2023-03-03T05:14:23.042Z,1005.58
2023-03-03T05:15:23.054Z,1005.51
2023-03-03T05:16:23.011Z,1005.52
2023-03-03T05:17:23.042Z,1005.48
2023-03-03T05:18:23.002Z,1005.61
2023-03-03T05:19:22.992Z,1005.65
2023-03-03T05:20:22.981Z,1005.59
2023-03-03T05:21:22.964Z,1005.59
2023-03-03T05:22:22.988Z,1005.61
2023-03-03T05:23:22.978Z,1005.72
2023-03-03T05:24:22.904Z,1005.71
2023-03-03T05:25:22.919Z,1005.74
2023-03-03T05:26:22.931Z,1005.74
2023-03-03T05:27:22.875Z,1005.73
2023-03-03T05:28:22.897Z,1005.71
2023-03-03T05:29:22.865Z,1005.72
2023-03-03T05:30:22.844Z,1005.74
2023-03-03T05:31:22.873Z,1005.77
2023-03-03T05:32:22.956Z,1005.76
2023-03-03T05:33:22.858Z,1005.84
2023-03-03T05:34:22.801Z,1005.76
2023-03-03T05:35:22.823Z,1005.80
2023-03-03T05:36:22.775Z,1005.73
2023-03-03T05:37:22.761Z,1005.73
2023-03-03T05:38:22.816Z,1005.78
2023-03-03T05:39:22.761Z,1005.72
2023-03-03T05:40:22.732Z,1005.70
2023-03-03T05:41:22.707Z,1005.81
2023-03-03T05:42:22.734Z,1005.83
2023-03-03T05:43:22.708Z,1005.84
2023-03-03T05:44:22.702Z,1005.85
2023-03-03T05:45:22.678Z,1005.91
2023-03-03T05:46:22.657Z,1005.87
2023-03-03T05:47:22.658Z,1005.86
2023-03-03T05:48:22.697Z,1005.83
2023-03-03T05:49:22.626Z,1005.88
2023-03-03T05:50:22.629Z,1005.96
2023-03-03T05:51:22.604Z,1005.94
2023-03-03T05:52:22.574Z,1005.93
2023-03-03T05:53:22.595Z,1005.88
2023-03-03T05:54:22.579Z,1005.90
2023-03-03T05:55:22.586Z,1005.88
2023-03-03T05:56:22.536Z,1005.88
2023-03-03T05:57:22.530Z,1005.93
2023-03-03T05:58:22.526Z,1005.92
2023-03-03T05:59:22.506Z,1005.93
2023-03-03T06:00:22.501Z,1005.94
2023-03-03T06:01:22.532Z,1005.90
2023-03-03T06:02:22.490Z,1005.83
2023-03-03T06:03:22.528Z,1005.90
2023-03-03T06:04:22.463Z,1005.82
2023-03-03T06:05:22.451Z,1005.91
2023-03-03T06:06:22.451Z,1005.94
2023-03-03T06:07:22.470Z,1005.95
2023-03-03T06:08:22.433Z,1005.95
2023-03-03T06:09:22.396Z,1006.03
2023-03-03T06:10:22.381Z,1006.03
2023-03-03T06:11:22.373Z,1006.09
2023-03-03T06:12:22.382Z,1006.04
2023-03-03T06:13:22.371Z,1006.08
2023-03-03T06:14:22.336Z,1006.03
2023-03-03T06:15:22.379Z,1006.09
2023-03-03T06:16:22.422Z,1006.07
2023-03-03T06:17:22.298Z,1006.09
2023-03-03T06:18:22.328Z,1006.08
2023-03-03T06:19:22.294Z,1006.11
2023-03-03T06:20:22.268Z,1006.16
2023-03-03T06:21:22.266Z,1006.07
2023-03-03T06:22:22.273Z,1006.04
2023-03-03T06:23:22.337Z,1006.02
2023-03-03T06:24:22.235Z,1006.04
2023-03-03T06:25:22.204Z,1006.04
2023-03-03T06:26:22.212Z,1006.06
2023-03-03T06:27:22.207Z,1006.08
2023-03-03T06:28:22.238Z,1006.06
2023-03-03T06:29:22.168Z,1006.04
2023-03-03T06:30:22.146Z,1006.08
2023-03-03T06:31:22.156Z,1006.05
2023-03-03T06:32:22.210Z,1006.08
2023-03-03T06:33:22.104Z,1006.07
2023-03-03T06:34:22.148Z,1006.06
2023-03-03T06:35:22.112Z,1006.07
2023-03-03T06:36:22.104Z,1006.11
2023-03-03T06:37:22.067Z,1006.09
2023-03-03T06:38:22.079Z,1006.11
2023-03-03T06:39:22.047Z,1006.16
2023-03-03T06:40:22.045Z,1006.17
2023-03-03T06:41:22.033Z,1006.21
2023-03-03T06:42:22.016Z,1006.22
2023-03-03T06:43:22.063Z,1006.24
2023-03-03T06:44:21.997Z,1006.23
2023-03-03T06:45:22.007Z,1006.25
2023-03-03T06:46:22.000Z,1006.26
2023-03-03T06:47:21.949Z,1006.28
2023-03-03T06:48:21.983Z,1006.27
2023-03-03T06:49:21.969Z,1006.28
2023-03-03T06:50:21.936Z,1006.32
2023-03-03T06:51:21.908Z,1006.26
2023-03-03T06:52:21.926Z,1006.25
2023-03-03T06:53:21.944Z,1006.27
2023-03-03T06:54:21.922Z,1006.24
2023-03-03T06:55:21.871Z,1006.26
2023-03-03T06:56:21.897Z,1006.21
2023-03-03T06:57:21.869Z,1006.21
2023-03-03T06:58:21.849Z,1006.24
2023-03-03T06:59:21.830Z,1006.25
2023-03-03T07:00:22.035Z,1006.29
2023-03-03T07:01:22.076Z,1006.32
2023-03-03T07:02:21.808Z,1006.30
2023-03-03T07:03:21.785Z,1006.31
2023-03-03T07:04:21.797Z,1006.32
2023-03-03T07:05:21.749Z,1006.30
2023-03-03T07:06:21.736Z,1006.31
2023-03-03T07:07:21.760Z,1006.35
2023-03-03T07:08:21.768Z,1006.33
2023-03-03T07:09:21.762Z,1006.37
2023-03-03T07:10:21.711Z,1006.36
2023-03-03T07:11:21.679Z,1006.35
2023-03-03T07:12:21.699Z,1006.40
2023-03-03T07:13:21.673Z,1006.42
2023-03-03T07:14:21.640Z,1006.40
2023-03-03T07:15:21.644Z,1006.34
2023-03-03T07:16:21.658Z,1006.38
2023-03-03T07:17:21.683Z,1006.37
2023-03-03T07:18:21.678Z,1006.36
2023-03-03T07:19:21.668Z,1006.31
2023-03-03T07:20:21.576Z,1006.34
2023-03-03T07:21:21.639Z,1006.33
2023-03-03T07:22:21.580Z,1006.32
2023-03-03T07:23:21.555Z,1006.32
2023-03-03T07:24:21.526Z,1006.33
2023-03-03T07:25:21.539Z,1006.46
2023-03-03T07:26:21.506Z,1006.45
2023-03-03T07:27:21.583Z,1006.48
2023-03-03T07:28:21.518Z,1006.46
2023-03-03T07:29:21.492Z,1006.50
2023-03-03T07:30:21.456Z,1006.51
2023-03-03T07:31:21.561Z,1006.47
2023-03-03T07:32:21.506Z,1006.55
2023-03-03T07:33:21.533Z,1006.61
2023-03-03T07:34:21.428Z,1006.59
2023-03-03T07:35:21.458Z,1006.64
2023-03-03T07:36:21.412Z,1006.65
2023-03-03T07:37:21.432Z,1006.62
2023-03-03T07:38:21.449Z,1006.68
2023-03-03T07:39:21.425Z,1006.70
2023-03-03T07:40:21.357Z,1006.77
2023-03-03T07:41:21.414Z,1006.71
2023-03-03T07:42:21.355Z,1006.66
2023-03-03T07:43:21.336Z,1006.70
2023-03-03T07:44:21.310Z,1006.76
2023-03-03T07:45:21.342Z,1006.72
2023-03-03T07:46:21.339Z,1006.73
2023-03-03T07:47:21.297Z,1006.77
2023-03-03T07:48:21.246Z,1006.79
2023-03-03T07:49:21.254Z,1006.76
2023-03-03T07:50:21.263Z,1006.79
2023-03-03T07:51:21.264Z,1006.80
2023-03-03T07:52:21.207Z,1006.80
2023-03-03T07:53:21.204Z,1006.86
2023-03-03T07:54:21.215Z,1006.87
2023-03-03T07:55:21.179Z,1006.88
2023-03-03T07:56:21.191Z,1006.87
2023-03-03T07:57:21.219Z,1006.92
2023-03-03T07:58:21.158Z,1006.93
2023-03-03T07:59:21.158Z,1006.91
2023-03-03T08:00:21.209Z,1006.92
2023-03-03T08:01:21.114Z,1006.93
2023-03-03T08:02:21.106Z,1006.90
2023-03-03T08:03:21.151Z,1006.89
2023-03-03T08:04:21.191Z,1006.90
2023-03-03T08:05:21.180Z,1006.89
2023-03-03T08:06:21.280Z,1006.91
2023-03-03T08:07:21.031Z,1006.89
2023-03-03T08:08:21.054Z,1006.98
2023-03-03T08:09:21.056Z,1006.98
2023-03-03T08:10:21.029Z,1006.96
2023-03-03T08:11:21.020Z,1007.01
2023-03-03T08:12:20.974Z,1007.01
2023-03-03T08:13:21.015Z,1006.97
2023-03-03T08:14:20.966Z,1007.01
2023-03-03T08:15:20.919Z,1006.96
2023-03-03T08:16:20.999Z,1006.91
2023-03-03T08:17:20.917Z,1006.93
2023-03-03T08:18:20.951Z,1006.92
2023-03-03T08:19:20.900Z,1006.91
2023-03-03T08:20:20.880Z,1006.86
2023-03-03T08:21:20.907Z,1006.84
2023-03-03T08:22:20.909Z,1006.88
2023-03-03T08:23:20.844Z,1006.81
2023-03-03T08:24:20.868Z,1006.83
2023-03-03T08:25:20.867Z,1006.81
2023-03-03T08:26:20.817Z,1006.80
2023-03-03T08:27:20.789Z,1006.80
2023-03-03T08:28:20.805Z,1006.84
2023-03-03T08:29:20.774Z,1006.80
2023-03-03T08:30:20.801Z,1006.82
2023-03-03T08:31:38.386Z,1006.80
2023-03-03T08:32:21.843Z,1006.80
2023-03-03T08:33:20.716Z,1006.79
2023-03-03T08:34:20.775Z,1006.92
2023-03-03T08:35:20.770Z,1006.85
2023-03-03T08:36:20.720Z,1006.88
2023-03-03T08:37:20.735Z,1006.81
2023-03-03T08:38:20.697Z,1006.87
2023-03-03T08:39:20.656Z,1006.85
2023-03-03T08:40:20.645Z,1006.92
2023-03-03T08:41:20.748Z,1006.98
2023-03-03T08:42:20.624Z,1006.98
2023-03-03T08:43:20.641Z,1007.01
2023-03-03T08:44:20.614Z,1007.04
2023-03-03T08:45:20.570Z,1007.14
2023-03-03T08:46:20.654Z,1007.17
2023-03-03T08:47:20.547Z,1007.17
2023-03-03T08:48:20.556Z,1007.17
2023-03-03T08:49:20.568Z,1007.20
2023-03-03T08:50:20.530Z,1007.16
2023-03-03T08:51:20.551Z,1007.15
2023-03-03T08:52:20.487Z,1007.15
2023-03-03T08:53:20.558Z,1007.18
2023-03-03T08:54:20.535Z,1007.11
2023-03-03T08:55:20.583Z,1007.07
2023-03-03T08:56:20.452Z,1007.07
2023-03-03T08:57:20.454Z,1007.15
2023-03-03T08:58:21.253Z,1007.13
2023-03-03T08:59:20.453Z,1007.11
2023-03-03T09:00:20.450Z,1007.14
2023-03-03T09:01:20.437Z,1007.14
2023-03-03T09:02:20.393Z,1007.15
2023-03-03T09:03:20.372Z,1007.10
2023-03-03T09:04:20.404Z,1007.13
2023-03-03T09:05:20.360Z,1007.10
2023-03-03T09:06:20.345Z,1007.09
2023-03-03T09:07:20.328Z,1007.14
2023-03-03T09:08:20.323Z,1007.19
2023-03-03T09:09:20.334Z,1007.18
2023-03-03T09:10:20.312Z,1007.19
2023-03-03T09:11:20.291Z,1007.20
2023-03-03T09:12:20.288Z,1007.22
2023-03-03T09:13:20.343Z,1007.22
2023-03-03T09:14:20.273Z,1007.27
2023-03-03T09:15:20.250Z,1007.27
2023-03-03T09:16:20.283Z,1007.25
2023-03-03T09:17:20.257Z,1007.27
2023-03-03T09:18:20.235Z,1007.25
2023-03-03T09:19:20.200Z,1007.27
2023-03-03T09:20:20.172Z,1007.27
2023-03-03T09:21:20.155Z,1007.22
2023-03-03T09:22:20.199Z,1007.24
2023-03-03T09:23:20.132Z,1007.25
2023-03-03T09:24:20.125Z,1007.27
2023-03-03T09:25:20.135Z,1007.31
2023-03-03T09:26:20.100Z,1007.33
2023-03-03T09:27:20.099Z,1007.31
2023-03-03T09:28:20.131Z,1007.31
2023-03-03T09:29:20.085Z,1007.32
2023-03-03T09:30:20.065Z,1007.33
2023-03-03T09:31:20.061Z,1007.33
2023-03-03T09:32:20.085Z,1007.28
2023-03-03T09:33:20.076Z,1007.27
2023-03-03T09:34:21.046Z,1007.29
2023-03-03T09:35:20.060Z,1007.27
2023-03-03T09:36:20.038Z,1007.30
2023-03-03T09:37:19.999Z,1007.22
2023-03-03T09:38:19.968Z,1007.24
2023-03-03T09:39:20.021Z,1007.26
2023-03-03T09:40:19.968Z,1007.20
2023-03-03T09:41:19.951Z,1007.21
2023-03-03T09:42:19.947Z,1007.27
2023-03-03T09:43:20.061Z,1007.23
2023-03-03T09:44:19.932Z,1007.18
2023-03-03T09:45:19.886Z,1007.20
2023-03-03T09:46:19.937Z,1007.19
2023-03-03T09:47:22.159Z,1007.20
2023-03-03T09:48:19.858Z,1007.19
2023-03-03T09:49:20.852Z,1007.18
2023-03-03T09:50:19.864Z,1007.26
2023-03-03T09:51:19.845Z,1007.26
2023-03-03T09:52:19.835Z,1007.25
2023-03-03T09:53:19.844Z,1007.23
2023-03-03T09:54:19.789Z,1007.25
2023-03-03T09:55:19.808Z,1007.27
2023-03-03T09:56:19.834Z,1007.27
2023-03-03T09:57:19.736Z,1007.30
2023-03-03T09:58:19.755Z,1007.32
2023-03-03T09:59:19.761Z,1007.32
2023-03-03T10:00:19.707Z,1007.35
2023-03-03T10:01:19.709Z,1007.38
2023-03-03T10:02:19.726Z,1007.37
2023-03-03T10:03:19.744Z,1007.38
2023-03-03T10:04:19.763Z,1007.38
2023-03-03T10:05:19.687Z,1007.39
2023-03-03T10:06:19.654Z,1007.34
2023-03-03T10:07:19.652Z,1007.33
2023-03-03T10:08:19.638Z,1007.38
2023-03-03T10:09:19.687Z,1007.27
2023-03-03T10:10:19.650Z,1007.28
2023-03-03T10:11:19.611Z,1007.31
2023-03-03T10:12:19.628Z,1007.26
2023-03-03T10:13:19.570Z,1007.32
2023-03-03T10:14:19.554Z,1007.28
2023-03-03T10:15:19.571Z,1007.21
2023-03-03T10:16:19.654Z,1007.29
2023-03-03T10:17:19.557Z,1007.30
2023-03-03T10:18:19.509Z,1007.34
2023-03-03T10:19:19.741Z,1007.34
2023-03-03T10:20:19.469Z,1007.40
2023-03-03T10:21:19.553Z,1007.38
2023-03-03T10:22:19.653Z,1007.33
2023-03-03T10:23:19.462Z,1007.30
2023-03-03T10:24:19.440Z,1007.30
2023-03-03T10:25:19.442Z,1007.32
2023-03-03T10:26:19.429Z,1007.31
2023-03-03T10:27:19.418Z,1007.31
2023-03-03T10:28:19.433Z,1007.34
2023-03-03T10:29:22.635Z,1007.38
2023-03-03T10:30:33.205Z,1007.36
2023-03-03T10:31:20.792Z,1007.37
2023-03-03T10:32:19.504Z,1007.39
2023-03-03T10:33:19.904Z,1007.40
2023-03-03T10:34:19.750Z,1007.38
2023-03-03T10:35:19.353Z,1007.30
2023-03-03T10:36:19.336Z,1007.32
2023-03-03T10:37:19.308Z,1007.24
2023-03-03T10:38:19.317Z,1007.25
2023-03-03T10:39:20.305Z,1007.21
2023-03-03T10:40:19.256Z,1007.29
2023-03-03T10:41:19.250Z,1007.19
2023-03-03T10:42:19.615Z,1007.19
2023-03-03T10:43:31.228Z,1007.18
2023-03-03T10:44:20.194Z,1007.21
2023-03-03T10:45:19.226Z,1007.20
2023-03-03T10:46:19.233Z,1007.20
2023-03-03T10:47:19.204Z,1007.22
2023-03-03T10:48:19.173Z,1007.22
2023-03-03T10:49:19.152Z,1007.17
2023-03-03T10:50:19.132Z,1007.15
2023-03-03T10:51:19.123Z,1007.14
2023-03-03T10:52:19.126Z,1007.14
2023-03-03T10:53:19.323Z,1007.18
2023-03-03T10:54:19.104Z,1007.18
2023-03-03T10:55:19.121Z,1007.21
2023-03-03T10:56:19.068Z,1007.27
2023-03-03T10:57:19.067Z,1007.27
2023-03-03T10:58:19.106Z,1007.28
2023-03-03T10:59:19.028Z,1007.26
2023-03-03T11:00:19.085Z,1007.27
2023-03-03T11:01:19.093Z,1007.31
2023-03-03T11:02:19.048Z,1007.36
2023-03-03T11:03:19.296Z,1007.33
2023-03-03T11:04:19.025Z,1007.39
2023-03-03T11:05:18.988Z,1007.39
2023-03-03T11:06:18.968Z,1007.37
2023-03-03T11:07:18.946Z,1007.38
2023-03-03T11:08:18.978Z,1007.41
2023-03-03T11:09:18.926Z,1007.40
2023-03-03T11:10:18.959Z,1007.35
2023-03-03T11:11:18.917Z,1007.35
2023-03-03T11:12:21.398Z,1007.37
2023-03-03T11:13:18.888Z,1007.31
2023-03-03T11:14:18.874Z,1007.33
2023-03-03T11:15:18.920Z,1007.32
2023-03-03T11:16:18.875Z,1007.34
2023-03-03T11:17:18.866Z,1007.30
2023-03-03T11:18:18.824Z,1007.32
2023-03-03T11:19:20.308Z,1007.33
2023-03-03T11:20:18.894Z,1007.34
2023-03-03T11:21:18.943Z,1007.38
2023-03-03T11:22:18.793Z,1007.30
2023-03-03T11:23:18.780Z,1007.27
2023-03-03T11:24:18.771Z,1007.23
2023-03-03T11:25:18.996Z,1007.24
2023-03-03T11:26:18.714Z,1007.20
2023-03-03T11:27:21.756Z,1007.26
2023-03-03T11:28:18.702Z,1007.23
2023-03-03T11:29:18.727Z,1007.21
2023-03-03T11:30:18.818Z,1007.26
2023-03-03T11:31:18.716Z,1007.22
2023-03-03T11:32:18.739Z,1007.25
2023-03-03T11:33:18.666Z,1007.23
2023-03-03T11:34:18.630Z,1007.19
2023-03-03T11:35:18.662Z,1007.19
2023-03-03T11:36:18.610Z,1007.22
2023-03-03T11:37:18.663Z,1007.19
2023-03-03T11:38:18.612Z,1007.21
2023-03-03T11:39:18.610Z,1007.16
2023-03-03T11:40:18.571Z,1007.17
2023-03-03T11:41:18.562Z,1007.18
2023-03-03T11:42:18.589Z,1007.13
2023-03-03T11:43:33.923Z,1007.20
2023-03-03T11:44:19.510Z,1007.18
2023-03-03T11:45:18.551Z,1007.14
2023-03-03T11:46:18.553Z,1007.10
2023-03-03T11:47:18.536Z,1007.08
2023-03-03T11:48:18.493Z,1007.09
2023-03-03T11:49:18.456Z,1007.07
2023-03-03T11:50:18.613Z,1007.09
2023-03-03T11:51:18.447Z,1007.04
2023-03-03T11:52:18.445Z,1007.04
2023-03-03T11:53:18.442Z,1007.08
2023-03-03T11:54:18.420Z,1007.02
2023-03-03T11:55:18.380Z,1007.01
2023-03-03T11:56:18.408Z,1007.01
2023-03-03T11:57:18.389Z,1006.98
2023-03-03T11:58:18.398Z,1006.94
2023-03-03T11:59:18.376Z,1006.93
2023-03-03T12:00:18.362Z,1006.99
2023-03-03T12:01:18.315Z,1006.96
2023-03-03T12:02:18.398Z,1006.89
2023-03-03T12:03:18.303Z,1006.89
2023-03-03T12:04:18.310Z,1006.90
2023-03-03T12:05:18.335Z,1006.89